sensor_id;sensor_type;location;lat;lon;timestamp;pressure;altitude;pressure_sealevel;temperature;humidity
20019;BME280;10170;42.502;26.526;2023-05-01T00:00:15;99581.84;;;11.64;100.00
20019;BME280;10170;42.502;26.526;2023-05-01T00:02:43;99581.00;;;11.77;100.00
20019;BME280;10170;42.502;26.526;2023-05-01T00:05:10;99579.75;;;11.79;100.00
20019;BME280;10170;42.502;26.526;2023-05-01T00:07:37;99578.00;;;11.67;100.00
20019;BME280;10170;42.502;26.526;2023-05-01T00:10:05;99579.25;;;11.57;100.00
20019;BME280;10170;42.502;26.526;2023-05-01T00:12:32;99572.25;;;11.63;100.00
20019;BME280;10170;42.502;26.526;2023-05-01T00:14:59;99572.47;;;11.61;100.00
20019;BME280;10170;42.502;26.526;2023-05-01T00:17:26;99566.31;;;11.61;100.00
20019;BME280;10170;42.502;26.526;2023-05-01T00:19:53;99567.19;;;11.48;100.00
20019;BME280;10170;42.502;26.526;2023-05-01T00:22:21;99565.38;;;11.49;100.00
20019;BME280;10170;42.502;26.526;2023-05-01T00:24:48;99558.69;;;11.71;100.00
20019;BME280;10170;42.502;26.526;2023-05-01T00:27:15;99569.88;;;11.86;100.00
20019;BME280;10170;42.502;26.526;2023-05-01T00:29:42;99564.00;;;11.78;100.00
20019;BME280;10170;42.502;26.526;2023-05-01T00:32:09;99564.91;;;11.65;100.00
20019;BME280;10170;42.502;26.526;2023-05-01T00:34:36;99562.88;;;11.54;100.00
20019;BME280;10170;42.502;26.526;2023-05-01T00:37:03;99563.00;;;11.72;100.00
20019;BME280;10170;42.502;26.526;2023-05-01T00:39:29;99560.22;;;11.54;100.00
20019;BME280;10170;42.502;26.526;2023-05-01T00:41:56;99553.22;;;11.53;100.00
20019;BME280;10170;42.502;26.526;2023-05-01T00:44:23;99557.94;;;11.57;100.00
20019;BME280;10170;42.502;26.526;2023-05-01T00:46:50;99554.78;;;11.74;100.00
20019;BME280;10170;42.502;26.526;2023-05-01T00:49:17;99547.25;;;11.95;100.00
20019;BME280;10170;42.502;26.526;2023-05-01T00:51:46;99550.00;;;12.07;100.00
20019;BME280;10170;42.502;26.526;2023-05-01T00:54:15;99554.25;;;12.14;100.00
20019;BME280;10170;42.502;26.526;2023-05-01T00:56:42;99557.22;;;12.06;100.00
20019;BME280;10170;42.502;26.526;2023-05-01T00:59:09;99559.38;;;11.91;100.00
20019;BME280;10170;42.502;26.526;2023-05-01T01:01:36;99565.59;;;12.10;100.00
20019;BME280;10170;42.502;26.526;2023-05-01T01:04:03;99571.09;;;12.08;100.00
20019;BME280;10170;42.502;26.526;2023-05-01T01:06:57;99581.97;;;11.82;100.00
20019;BME280;10170;42.502;26.526;2023-05-01T01:10:01;99581.75;;;11.46;100.00
20019;BME280;10170;42.502;26.526;2023-05-01T01:12:36;99573.75;;;11.46;100.00
20019;BME280;10170;42.502;26.526;2023-05-01T01:23:41;99565.16;;;11.44;100.00
20019;BME280;10170;42.502;26.526;2023-05-01T01:27:06;99561.72;;;11.43;100.00
20019;BME280;10170;42.502;26.526;2023-05-01T01:29:48;99574.25;;;11.30;100.00
20019;BME280;10170;42.502;26.526;2023-05-01T01:32:33;99586.19;;;11.14;100.00
20019;BME280;10170;42.502;26.526;2023-05-01T01:35:14;99582.50;;;11.15;100.00
20019;BME280;10170;42.502;26.526;2023-05-01T01:39:04;99578.03;;;11.09;100.00
20019;BME280;10170;42.502;26.526;2023-05-01T01:41:03;99580.56;;;10.85;100.00
20019;BME280;10170;42.502;26.526;2023-05-01T01:43:38;99580.16;;;10.88;100.00
20019;BME280;10170;42.502;26.526;2023-05-01T01:46:07;99570.72;;;10.92;100.00
20019;BME280;10170;42.502;26.526;2023-05-01T01:48:40;99568.56;;;11.20;100.00
20019;BME280;10170;42.502;26.526;2023-05-01T01:51:12;99573.25;;;11.24;100.00
20019;BME280;10170;42.502;26.526;2023-05-01T01:53:40;99566.13;;;11.18;100.00
20019;BME280;10170;42.502;26.526;2023-05-01T01:56:09;99576.34;;;11.21;100.00
20019;BME280;10170;42.502;26.526;2023-05-01T01:58:38;99567.78;;;11.13;100.00
20019;BME280;10170;42.502;26.526;2023-05-01T02:01:06;99578.00;;;11.16;100.00
20019;BME280;10170;42.502;26.526;2023-05-01T02:03:34;99581.31;;;11.11;100.00
20019;BME280;10170;42.502;26.526;2023-05-01T02:06:04;99591.75;;;11.06;100.00
20019;BME280;10170;42.502;26.526;2023-05-01T02:08:33;99601.81;;;10.98;100.00
20019;BME280;10170;42.502;26.526;2023-05-01T02:11:02;99600.03;;;10.79;100.00
20019;BME280;10170;42.502;26.526;2023-05-01T02:13:31;99600.66;;;10.68;100.00
20019;BME280;10170;42.502;26.526;2023-05-01T02:16:01;99590.44;;;10.58;100.00
20019;BME280;10170;42.502;26.526;2023-05-01T02:18:30;99600.22;;;10.71;100.00
20019;BME280;10170;42.502;26.526;2023-05-01T02:20:58;99599.78;;;10.87;100.00
20019;BME280;10170;42.502;26.526;2023-05-01T02:23:26;99598.13;;;10.92;100.00
20019;BME280;10170;42.502;26.526;2023-05-01T02:25:55;99604.25;;;11.06;100.00
20019;BME280;10170;42.502;26.526;2023-05-01T02:28:24;99599.94;;;11.11;100.00
20019;BME280;10170;42.502;26.526;2023-05-01T02:30:52;99598.88;;;11.19;100.00
20019;BME280;10170;42.502;26.526;2023-05-01T02:33:19;99613.75;;;11.33;100.00
20019;BME280;10170;42.502;26.526;2023-05-01T02:35:46;99614.59;;;11.27;100.00
20019;BME280;10170;42.502;26.526;2023-05-01T02:38:14;99619.44;;;10.99;100.00
20019;BME280;10170;42.502;26.526;2023-05-01T02:40:45;99622.75;;;10.75;100.00
20019;BME280;10170;42.502;26.526;2023-05-01T02:43:17;99618.06;;;10.57;100.00
20019;BME280;10170;42.502;26.526;2023-05-01T02:45:46;99627.47;;;10.66;100.00
20019;BME280;10170;42.502;26.526;2023-05-01T02:48:18;99628.66;;;10.77;100.00
20019;BME280;10170;42.502;26.526;2023-05-01T02:50:46;99638.06;;;10.86;100.00
20019;BME280;10170;42.502;26.526;2023-05-01T02:53:15;99642.19;;;10.49;100.00
20019;BME280;10170;42.502;26.526;2023-05-01T02:55:42;99649.75;;;10.26;100.00
20019;BME280;10170;42.502;26.526;2023-05-01T02:58:14;99646.72;;;10.29;100.00
20019;BME280;10170;42.502;26.526;2023-05-01T03:00:41;99610.88;;;9.86;100.00
20019;BME280;10170;42.502;26.526;2023-05-01T03:03:09;99653.78;;;9.96;100.00
20019;BME280;10170;42.502;26.526;2023-05-01T03:05:37;99649.91;;;9.98;100.00
20019;BME280;10170;42.502;26.526;2023-05-01T03:08:04;99645.19;;;10.00;100.00
20019;BME280;10170;42.502;26.526;2023-05-01T03:10:32;99662.09;;;9.73;100.00
20019;BME280;10170;42.502;26.526;2023-05-01T03:12:58;99655.34;;;9.77;100.00
20019;BME280;10170;42.502;26.526;2023-05-01T03:15:26;99655.69;;;9.54;100.00
20019;BME280;10170;42.502;26.526;2023-05-01T03:17:53;99654.28;;;9.58;100.00
20019;BME280;10170;42.502;26.526;2023-05-01T03:20:20;99662.47;;;9.64;100.00
20019;BME280;10170;42.502;26.526;2023-05-01T03:22:47;99671.53;;;9.28;100.00
20019;BME280;10170;42.502;26.526;2023-05-01T03:25:14;99673.38;;;9.00;100.00
20019;BME280;10170;42.502;26.526;2023-05-01T03:27:41;99685.22;;;8.98;100.00
20019;BME280;10170;42.502;26.526;2023-05-01T03:30:08;99679.13;;;9.04;100.00
20019;BME280;10170;42.502;26.526;2023-05-01T03:32:35;99675.06;;;9.08;100.00
20019;BME280;10170;42.502;26.526;2023-05-01T03:35:02;99668.94;;;9.07;100.00
20019;BME280;10170;42.502;26.526;2023-05-01T03:37:29;99673.28;;;9.15;100.00
20019;BME280;10170;42.502;26.526;2023-05-01T03:39:56;99677.00;;;9.27;100.00
20019;BME280;10170;42.502;26.526;2023-05-01T03:42:23;99676.09;;;9.47;100.00
20019;BME280;10170;42.502;26.526;2023-05-01T03:44:50;99667.28;;;9.40;100.00
20019;BME280;10170;42.502;26.526;2023-05-01T03:47:17;99673.28;;;9.62;100.00
20019;BME280;10170;42.502;26.526;2023-05-01T03:49:44;99662.72;;;9.82;100.00
20019;BME280;10170;42.502;26.526;2023-05-01T03:52:11;99673.00;;;10.04;100.00
20019;BME280;10170;42.502;26.526;2023-05-01T03:54:38;99675.44;;;10.06;100.00
20019;BME280;10170;42.502;26.526;2023-05-01T03:57:05;99681.59;;;10.13;100.00
20019;BME280;10170;42.502;26.526;2023-05-01T03:59:32;99681.44;;;10.21;100.00
20019;BME280;10170;42.502;26.526;2023-05-01T04:01:59;99692.28;;;10.39;100.00
20019;BME280;10170;42.502;26.526;2023-05-01T04:04:26;99683.69;;;10.43;100.00
20019;BME280;10170;42.502;26.526;2023-05-01T04:06:55;99685.97;;;10.46;100.00
20019;BME280;10170;42.502;26.526;2023-05-01T04:09:22;99686.59;;;10.48;100.00
20019;BME280;10170;42.502;26.526;2023-05-01T04:11:49;99685.97;;;10.66;100.00
20019;BME280;10170;42.502;26.526;2023-05-01T04:14:15;99691.47;;;10.84;100.00
20019;BME280;10170;42.502;26.526;2023-05-01T04:16:42;99697.78;;;10.96;100.00
20019;BME280;10170;42.502;26.526;2023-05-01T04:19:09;99697.13;;;11.20;100.00
20019;BME280;10170;42.502;26.526;2023-05-01T04:21:36;99705.31;;;11.25;100.00
20019;BME280;10170;42.502;26.526;2023-05-01T04:24:02;99708.56;;;11.34;100.00
20019;BME280;10170;42.502;26.526;2023-05-01T04:26:29;99714.88;;;11.52;100.00
20019;BME280;10170;42.502;26.526;2023-05-01T04:28:56;99713.41;;;11.56;100.00
20019;BME280;10170;42.502;26.526;2023-05-01T04:31:23;99720.63;;;11.43;100.00
20019;BME280;10170;42.502;26.526;2023-05-01T04:33:50;99721.69;;;11.22;100.00
20019;BME280;10170;42.502;26.526;2023-05-01T04:36:17;99730.50;;;11.23;100.00
20019;BME280;10170;42.502;26.526;2023-05-01T04:38:43;99733.16;;;11.23;100.00
20019;BME280;10170;42.502;26.526;2023-05-01T04:41:10;99722.28;;;11.24;100.00
20019;BME280;10170;42.502;26.526;2023-05-01T04:43:37;99745.00;;;11.40;100.00
20019;BME280;10170;42.502;26.526;2023-05-01T04:46:04;99747.44;;;11.48;100.00
20019;BME280;10170;42.502;26.526;2023-05-01T04:48:31;99756.81;;;11.77;100.00
20019;BME280;10170;42.502;26.526;2023-05-01T04:50:57;99717.28;;;11.67;100.00
20019;BME280;10170;42.502;26.526;2023-05-01T04:53:24;99757.81;;;11.82;100.00
20019;BME280;10170;42.502;26.526;2023-05-01T04:55:51;99773.13;;;11.93;100.00
20019;BME280;10170;42.502;26.526;2023-05-01T04:58:18;99767.75;;;12.06;100.00
20019;BME280;10170;42.502;26.526;2023-05-01T05:00:45;99766.06;;;12.18;100.00
20019;BME280;10170;42.502;26.526;2023-05-01T05:03:11;99760.66;;;12.31;100.00
20019;BME280;10170;42.502;26.526;2023-05-01T05:05:38;99761.75;;;12.48;100.00
20019;BME280;10170;42.502;26.526;2023-05-01T05:08:05;99766.13;;;12.67;100.00
20019;BME280;10170;42.502;26.526;2023-05-01T05:10:32;99769.53;;;12.81;100.00
20019;BME280;10170;42.502;26.526;2023-05-01T05:12:59;99770.31;;;13.13;100.00
20019;BME280;10170;42.502;26.526;2023-05-01T05:15:26;99775.25;;;13.34;100.00
20019;BME280;10170;42.502;26.526;2023-05-01T05:17:53;99778.03;;;13.45;100.00
20019;BME280;10170;42.502;26.526;2023-05-01T05:20:22;99780.50;;;13.65;100.00
20019;BME280;10170;42.502;26.526;2023-05-01T05:22:48;99797.28;;;13.72;100.00
20019;BME280;10170;42.502;26.526;2023-05-01T05:25:15;99797.00;;;13.80;100.00
20019;BME280;10170;42.502;26.526;2023-05-01T05:27:42;99810.03;;;14.06;100.00
20019;BME280;10170;42.502;26.526;2023-05-01T05:30:09;99818.19;;;14.11;100.00
20019;BME280;10170;42.502;26.526;2023-05-01T05:32:36;99826.69;;;14.08;100.00
20019;BME280;10170;42.502;26.526;2023-05-01T05:35:03;99827.41;;;14.15;100.00
20019;BME280;10170;42.502;26.526;2023-05-01T05:37:31;99836.63;;;14.19;100.00
20019;BME280;10170;42.502;26.526;2023-05-01T05:39:57;99842.84;;;14.13;100.00
20019;BME280;10170;42.502;26.526;2023-05-01T05:42:24;99844.31;;;14.34;100.00
20019;BME280;10170;42.502;26.526;2023-05-01T05:44:51;99856.59;;;14.53;100.00
20019;BME280;10170;42.502;26.526;2023-05-01T05:47:18;99850.53;;;14.57;100.00
20019;BME280;10170;42.502;26.526;2023-05-01T05:49:45;99858.19;;;14.42;100.00
20019;BME280;10170;42.502;26.526;2023-05-01T05:52:12;99870.09;;;14.58;100.00
20019;BME280;10170;42.502;26.526;2023-05-01T05:54:39;99861.31;;;14.69;100.00
20019;BME280;10170;42.502;26.526;2023-05-01T05:57:06;99876.31;;;15.00;100.00
20019;BME280;10170;42.502;26.526;2023-05-01T05:59:33;99881.97;;;15.33;100.00
20019;BME280;10170;42.502;26.526;2023-05-01T06:01:59;99887.13;;;15.34;100.00
20019;BME280;10170;42.502;26.526;2023-05-01T06:04:26;99898.34;;;15.43;100.00
20019;BME280;10170;42.502;26.526;2023-05-01T06:06:53;99904.00;;;15.35;100.00
20019;BME280;10170;42.502;26.526;2023-05-01T06:09:20;99896.63;;;15.71;100.00
20019;BME280;10170;42.502;26.526;2023-05-01T06:11:47;99908.03;;;16.02;100.00
20019;BME280;10170;42.502;26.526;2023-05-01T06:14:14;99906.78;;;16.04;100.00
20019;BME280;10170;42.502;26.526;2023-05-01T06:16:42;99908.53;;;15.75;100.00
20019;BME280;10170;42.502;26.526;2023-05-01T06:19:09;99906.78;;;16.44;100.00
20019;BME280;10170;42.502;26.526;2023-05-01T06:21:37;99921.31;;;16.08;100.00
20019;BME280;10170;42.502;26.526;2023-05-01T06:24:04;99900.75;;;16.37;100.00
20019;BME280;10170;42.502;26.526;2023-05-01T06:26:31;99929.03;;;16.79;100.00
20019;BME280;10170;42.502;26.526;2023-05-01T06:28:58;99919.72;;;16.98;100.00
20019;BME280;10170;42.502;26.526;2023-05-01T06:31:25;99938.94;;;17.35;100.00
20019;BME280;10170;42.502;26.526;2023-05-01T06:33:52;99940.19;;;17.60;100.00
20019;BME280;10170;42.502;26.526;2023-05-01T06:36:19;99936.06;;;17.69;100.00
20019;BME280;10170;42.502;26.526;2023-05-01T06:38:46;99942.03;;;17.55;100.00
20019;BME280;10170;42.502;26.526;2023-05-01T06:41:15;99951.47;;;17.29;100.00
20019;BME280;10170;42.502;26.526;2023-05-01T06:43:41;99949.16;;;17.66;100.00
20019;BME280;10170;42.502;26.526;2023-05-01T06:46:08;99946.81;;;17.53;100.00
20019;BME280;10170;42.502;26.526;2023-05-01T06:48:35;99946.34;;;17.56;100.00
20019;BME280;10170;42.502;26.526;2023-05-01T06:51:02;99941.50;;;17.91;100.00
20019;BME280;10170;42.502;26.526;2023-05-01T06:53:29;99939.38;;;17.93;100.00
20019;BME280;10170;42.502;26.526;2023-05-01T06:55:56;99955.72;;;18.41;100.00
20019;BME280;10170;42.502;26.526;2023-05-01T06:58:23;99940.97;;;17.72;100.00
20019;BME280;10170;42.502;26.526;2023-05-01T07:00:51;99959.94;;;17.82;100.00
20019;BME280;10170;42.502;26.526;2023-05-01T07:03:18;99964.50;;;17.99;100.00
20019;BME280;10170;42.502;26.526;2023-05-01T07:05:45;99961.09;;;17.86;100.00
20019;BME280;10170;42.502;26.526;2023-05-01T07:08:12;99967.94;;;18.49;100.00
20019;BME280;10170;42.502;26.526;2023-05-01T07:10:39;99974.47;;;18.36;100.00
20019;BME280;10170;42.502;26.526;2023-05-01T07:13:08;99980.31;;;18.28;100.00
20019;BME280;10170;42.502;26.526;2023-05-01T07:15:35;99984.00;;;17.72;100.00
20019;BME280;10170;42.502;26.526;2023-05-01T07:18:02;99993.66;;;17.01;100.00
20019;BME280;10170;42.502;26.526;2023-05-01T07:20:32;99993.84;;;17.11;100.00
20019;BME280;10170;42.502;26.526;2023-05-01T07:23:00;99997.94;;;17.13;100.00
20019;BME280;10170;42.502;26.526;2023-05-01T07:25:27;99993.81;;;17.22;100.00
20019;BME280;10170;42.502;26.526;2023-05-01T07:27:53;100007.22;;;16.94;100.00
20019;BME280;10170;42.502;26.526;2023-05-01T07:30:20;100012.38;;;16.96;100.00
20019;BME280;10170;42.502;26.526;2023-05-01T07:32:47;100013.84;;;17.03;100.00
20019;BME280;10170;42.502;26.526;2023-05-01T07:35:14;100022.91;;;16.85;100.00
20019;BME280;10170;42.502;26.526;2023-05-01T07:37:41;100015.41;;;16.99;100.00
20019;BME280;10170;42.502;26.526;2023-05-01T07:40:08;100019.06;;;17.21;100.00
20019;BME280;10170;42.502;26.526;2023-05-01T07:42:34;100014.06;;;17.69;100.00
20019;BME280;10170;42.502;26.526;2023-05-01T07:45:02;100024.50;;;18.32;100.00
20019;BME280;10170;42.502;26.526;2023-05-01T07:47:29;100012.94;;;18.70;100.00
20019;BME280;10170;42.502;26.526;2023-05-01T07:49:56;100023.56;;;19.20;100.00
20019;BME280;10170;42.502;26.526;2023-05-01T07:52:23;100014.09;;;18.96;100.00
20019;BME280;10170;42.502;26.526;2023-05-01T07:54:50;100031.88;;;19.40;100.00
20019;BME280;10170;42.502;26.526;2023-05-01T07:57:17;100038.03;;;19.88;100.00
20019;BME280;10170;42.502;26.526;2023-05-01T07:59:44;100042.13;;;20.23;94.86
20019;BME280;10170;42.502;26.526;2023-05-01T08:02:11;100036.41;;;20.19;87.92
20019;BME280;10170;42.502;26.526;2023-05-01T08:04:39;100040.59;;;20.05;90.61
20019;BME280;10170;42.502;26.526;2023-05-01T08:07:07;100042.31;;;20.16;91.06
20019;BME280;10170;42.502;26.526;2023-05-01T08:09:34;100037.28;;;20.25;100.00
20019;BME280;10170;42.502;26.526;2023-05-01T08:12:01;100043.97;;;19.90;98.58
20019;BME280;10170;42.502;26.526;2023-05-01T08:14:29;100051.75;;;19.82;98.84
20019;BME280;10170;42.502;26.526;2023-05-01T08:16:56;100034.38;;;19.46;100.00
20019;BME280;10170;42.502;26.526;2023-05-01T08:19:23;100049.28;;;20.44;100.00
20019;BME280;10170;42.502;26.526;2023-05-01T08:21:50;100053.28;;;20.05;90.22
20019;BME280;10170;42.502;26.526;2023-05-01T08:24:16;100048.06;;;20.25;86.19
20019;BME280;10170;42.502;26.526;2023-05-01T08:26:43;100049.03;;;20.45;85.42
20019;BME280;10170;42.502;26.526;2023-05-01T08:29:10;100051.63;;;20.30;87.93
20019;BME280;10170;42.502;26.526;2023-05-01T08:31:37;100047.28;;;20.29;86.08
20019;BME280;10170;42.502;26.526;2023-05-01T08:34:05;100043.59;;;20.09;92.41
20019;BME280;10170;42.502;26.526;2023-05-01T08:36:31;100054.06;;;20.73;86.46
20019;BME280;10170;42.502;26.526;2023-05-01T08:38:58;100038.97;;;20.77;85.41
20019;BME280;10170;42.502;26.526;2023-05-01T08:41:52;100056.34;;;20.96;75.77
20019;BME280;10170;42.502;26.526;2023-05-01T08:44:19;100053.72;;;20.60;78.92
20019;BME280;10170;42.502;26.526;2023-05-01T08:49:15;100033.19;;;20.59;74.40
20019;BME280;10170;42.502;26.526;2023-05-01T08:51:46;100048.31;;;21.07;72.45
20019;BME280;10170;42.502;26.526;2023-05-01T08:54:16;100050.81;;;21.28;64.29
20019;BME280;10170;42.502;26.526;2023-05-01T08:56:49;100044.84;;;21.16;65.30
20019;BME280;10170;42.502;26.526;2023-05-01T08:59:17;100036.72;;;21.16;65.17
20019;BME280;10170;42.502;26.526;2023-05-01T09:01:45;100042.50;;;21.50;65.26
20019;BME280;10170;42.502;26.526;2023-05-01T09:04:13;100038.56;;;21.98;60.57
20019;BME280;10170;42.502;26.526;2023-05-01T09:06:42;100037.19;;;22.10;62.15
20019;BME280;10170;42.502;26.526;2023-05-01T09:09:10;100033.13;;;21.98;58.07
20019;BME280;10170;42.502;26.526;2023-05-01T09:11:37;100033.31;;;21.61;58.65
20019;BME280;10170;42.502;26.526;2023-05-01T09:14:05;100044.06;;;21.26;55.73
20019;BME280;10170;42.502;26.526;2023-05-01T09:16:33;100035.72;;;21.42;55.39
20019;BME280;10170;42.502;26.526;2023-05-01T09:19:01;100037.41;;;21.68;56.53
20019;BME280;10170;42.502;26.526;2023-05-01T09:21:27;100035.53;;;21.69;55.02
20019;BME280;10170;42.502;26.526;2023-05-01T09:23:57;100035.72;;;21.42;56.18
20019;BME280;10170;42.502;26.526;2023-05-01T09:26:24;100030.06;;;21.59;54.72
20019;BME280;10170;42.502;26.526;2023-05-01T09:28:52;100034.47;;;22.00;51.18
20019;BME280;10170;42.502;26.526;2023-05-01T09:31:25;100035.31;;;21.90;54.20
20019;BME280;10170;42.502;26.526;2023-05-01T09:34:00;100037.69;;;21.77;52.04
20019;BME280;10170;42.502;26.526;2023-05-01T09:36:32;100034.38;;;21.45;50.40
20019;BME280;10170;42.502;26.526;2023-05-01T09:39:26;100041.22;;;21.92;54.18
20019;BME280;10170;42.502;26.526;2023-05-01T09:41:54;100034.66;;;21.58;57.87
20019;BME280;10170;42.502;26.526;2023-05-01T09:44:21;100053.72;;;21.88;56.61
20019;BME280;10170;42.502;26.526;2023-05-01T09:46:48;100035.00;;;21.87;53.77
20019;BME280;10170;42.502;26.526;2023-05-01T09:49:15;100035.28;;;21.85;51.96
20019;BME280;10170;42.502;26.526;2023-05-01T09:51:41;100041.22;;;22.38;53.24
20019;BME280;10170;42.502;26.526;2023-05-01T09:54:17;100042.63;;;22.10;54.54
20019;BME280;10170;42.502;26.526;2023-05-01T09:56:46;100020.94;;;22.00;55.62
20019;BME280;10170;42.502;26.526;2023-05-01T09:59:19;100030.66;;;22.21;55.46
20019;BME280;10170;42.502;26.526;2023-05-01T10:01:47;100036.38;;;21.79;55.93
20019;BME280;10170;42.502;26.526;2023-05-01T10:04:16;100040.13;;;22.34;54.96
20019;BME280;10170;42.502;26.526;2023-05-01T10:06:43;100040.16;;;22.19;51.07
20019;BME280;10170;42.502;26.526;2023-05-01T10:09:10;100045.03;;;22.32;52.20
20019;BME280;10170;42.502;26.526;2023-05-01T10:11:50;100027.41;;;22.29;51.96
20019;BME280;10170;42.502;26.526;2023-05-01T10:14:22;100039.34;;;21.98;51.44
20019;BME280;10170;42.502;26.526;2023-05-01T10:16:53;100036.66;;;21.83;51.13
20019;BME280;10170;42.502;26.526;2023-05-01T10:19:22;100037.13;;;21.65;53.77
20019;BME280;10170;42.502;26.526;2023-05-01T10:21:49;100040.69;;;22.16;53.58
20019;BME280;10170;42.502;26.526;2023-05-01T10:24:15;100041.50;;;21.81;51.65
20019;BME280;10170;42.502;26.526;2023-05-01T10:26:47;100030.66;;;22.31;52.06
20019;BME280;10170;42.502;26.526;2023-05-01T10:29:14;100026.59;;;22.64;50.72
20019;BME280;10170;42.502;26.526;2023-05-01T10:31:41;100028.47;;;22.63;50.00
20019;BME280;10170;42.502;26.526;2023-05-01T10:34:10;100018.50;;;22.19;50.91
20019;BME280;10170;42.502;26.526;2023-05-01T10:36:50;100033.66;;;22.20;50.47
20019;BME280;10170;42.502;26.526;2023-05-01T10:39:33;100034.69;;;22.59;51.59
20019;BME280;10170;42.502;26.526;2023-05-01T10:42:08;100031.47;;;22.37;51.24
20019;BME280;10170;42.502;26.526;2023-05-01T10:44:43;100024.13;;;22.62;51.70
20019;BME280;10170;42.502;26.526;2023-05-01T10:50:07;100021.44;;;22.47;51.06
20019;BME280;10170;42.502;26.526;2023-05-01T10:55:49;100022.22;;;22.63;51.91
20019;BME280;10170;42.502;26.526;2023-05-01T11:01:27;100021.41;;;22.67;50.70
20019;BME280;10170;42.502;26.526;2023-05-01T11:03:56;100029.91;;;23.15;49.34
20019;BME280;10170;42.502;26.526;2023-05-01T11:06:24;100033.13;;;23.22;48.45
20019;BME280;10170;42.502;26.526;2023-05-01T11:08:51;100023.16;;;23.12;50.66
20019;BME280;10170;42.502;26.526;2023-05-01T11:16:40;100024.09;;;22.72;50.29
20019;BME280;10170;42.502;26.526;2023-05-01T11:19:10;100020.91;;;22.40;51.98
20019;BME280;10170;42.502;26.526;2023-05-01T11:21:38;100014.59;;;22.80;51.05
20019;BME280;10170;42.502;26.526;2023-05-01T11:24:08;100016.28;;;21.65;51.93
20019;BME280;10170;42.502;26.526;2023-05-01T11:27:03;99999.28;;;21.85;52.85
20019;BME280;10170;42.502;26.526;2023-05-01T11:29:30;100023.06;;;22.38;52.50
20019;BME280;10170;42.502;26.526;2023-05-01T11:32:00;100014.84;;;22.83;51.56
20019;BME280;10170;42.502;26.526;2023-05-01T11:34:34;100013.03;;;21.73;51.06
20019;BME280;10170;42.502;26.526;2023-05-01T11:37:03;100015.19;;;22.47;49.52
20019;BME280;10170;42.502;26.526;2023-05-01T11:39:30;100030.94;;;21.89;49.57
20019;BME280;10170;42.502;26.526;2023-05-01T11:42:07;100004.94;;;22.19;52.37
20019;BME280;10170;42.502;26.526;2023-05-01T11:44:34;100000.31;;;22.34;53.34
20019;BME280;10170;42.502;26.526;2023-05-01T11:47:01;100011.34;;;22.78;51.73
20019;BME280;10170;42.502;26.526;2023-05-01T11:49:28;100012.69;;;22.85;51.78
20019;BME280;10170;42.502;26.526;2023-05-01T11:51:58;100023.44;;;23.11;50.12
20019;BME280;10170;42.502;26.526;2023-05-01T11:54:25;100007.38;;;22.15;50.79
20019;BME280;10170;42.502;26.526;2023-05-01T11:56:59;100011.41;;;22.33;51.00
20019;BME280;10170;42.502;26.526;2023-05-01T11:59:26;100010.06;;;22.35;50.69
20019;BME280;10170;42.502;26.526;2023-05-01T12:01:53;100002.72;;;23.20;49.74
20019;BME280;10170;42.502;26.526;2023-05-01T12:04:27;99998.50;;;22.98;49.08
20019;BME280;10170;42.502;26.526;2023-05-01T12:06:57;99989.53;;;23.03;47.92
20019;BME280;10170;42.502;26.526;2023-05-01T12:09:25;100004.59;;;23.34;48.22
20019;BME280;10170;42.502;26.526;2023-05-01T12:11:56;100006.69;;;22.88;50.86
20019;BME280;10170;42.502;26.526;2023-05-01T12:14:25;100007.38;;;22.25;50.26
20019;BME280;10170;42.502;26.526;2023-05-01T12:16:52;100003.53;;;22.46;51.73
20019;BME280;10170;42.502;26.526;2023-05-01T12:19:19;99989.97;;;22.61;50.26
20019;BME280;10170;42.502;26.526;2023-05-01T12:22:04;100003.31;;;22.28;51.60
20019;BME280;10170;42.502;26.526;2023-05-01T12:24:31;100002.66;;;22.81;50.35
20019;BME280;10170;42.502;26.526;2023-05-01T12:27:01;99996.81;;;22.04;51.30
20019;BME280;10170;42.502;26.526;2023-05-01T12:29:41;99979.84;;;22.82;49.58
20019;BME280;10170;42.502;26.526;2023-05-01T12:32:10;100002.72;;;23.30;49.00
20019;BME280;10170;42.502;26.526;2023-05-01T12:34:37;100021.16;;;23.28;48.04
20019;BME280;10170;42.502;26.526;2023-05-01T12:37:04;100004.81;;;23.43;47.55
20019;BME280;10170;42.502;26.526;2023-05-01T12:39:38;99995.88;;;23.42;50.46
20019;BME280;10170;42.502;26.526;2023-05-01T12:42:11;99996.63;;;22.94;49.76
20019;BME280;10170;42.502;26.526;2023-05-01T12:44:40;100000.94;;;23.05;48.19
20019;BME280;10170;42.502;26.526;2023-05-01T12:47:07;100006.16;;;23.45;48.80
20019;BME280;10170;42.502;26.526;2023-05-01T12:49:35;99995.16;;;23.99;49.16
20019;BME280;10170;42.502;26.526;2023-05-01T12:52:04;99992.28;;;24.19;47.50
20019;BME280;10170;42.502;26.526;2023-05-01T12:54:37;99975.63;;;24.78;46.86
20019;BME280;10170;42.502;26.526;2023-05-01T12:59:42;99996.94;;;23.46;47.24
20019;BME280;10170;42.502;26.526;2023-05-01T13:02:11;99991.69;;;23.06;48.75
20019;BME280;10170;42.502;26.526;2023-05-01T13:04:42;99999.13;;;23.78;46.30
20019;BME280;10170;42.502;26.526;2023-05-01T13:07:16;100003.13;;;23.52;45.02
20019;BME280;10170;42.502;26.526;2023-05-01T13:09:54;99994.63;;;23.63;45.78
20019;BME280;10170;42.502;26.526;2023-05-01T13:12:22;99994.81;;;23.72;45.68
20019;BME280;10170;42.502;26.526;2023-05-01T13:14:50;99997.97;;;24.75;44.88
20019;BME280;10170;42.502;26.526;2023-05-01T13:17:29;99991.66;;;24.79;45.34